Kriti Ruby — SVAT5 — position and weather

sailwx.info

Track history (hours):
 
Tides and Currents Weather Stations Pressure Air Temp Water Temp Dewpoint Dewpoint Depression Visibility Wind Speed Wind Dir Waves Ship Positions

Kriti Ruby

Last reported at 2015-May-25 06:31 UTC. Time now 2015-May-27 07:46 UTC.
Position N 29°21' W 094°47'.

Length 183 m; draft 10 m.

Type: Ship (hazmat cat A). MMSI: 240941000.

Date/timePositionNaut miles runAvg speedWind from/ knotsBaromVisibWave heightAir tempDewpointWater temp
2015-May-25 06:31N 29°21' W 094°47'1212.1
2015-May-25 05:34N 29°31' W 094°53'1111.0
2015-May-25 04:33N 29°41' W 094°59'7 7.1
2015-May-25 03:34N 29°45' W 095°06'6 5.6
2015-May-25 02:34N 29°44' W 095°12'1 1.4
2015-May-25 01:33N 29°44' W 095°13'0 0.0
2015-May-25 00:33N 29°44' W 095°13'0 0.0
2015-May-24 23:33N 29°44' W 095°13'0 0.0
2015-May-24 22:33N 29°44' W 095°13'0 0.0
2015-May-24 21:33N 29°44' W 095°13'0 0.0
2015-May-24 20:33N 29°44' W 095°13'0 0.0
2015-May-24 19:33N 29°44' W 095°13'0 0.0
2015-May-24 18:33N 29°44' W 095°13'0 0.0
2015-May-24 17:33N 29°44' W 095°13'0 0.0
2015-May-24 16:33N 29°44' W 095°13'0 0.0
2015-May-24 15:33N 29°44' W 095°13'0 0.0
2015-May-24 14:33N 29°44' W 095°13'0 0.0
2015-May-24 13:33N 29°44' W 095°13'0 0.0
2015-May-24 12:33N 29°44' W 095°13'0 0.0
2015-May-24 11:33N 29°44' W 095°13'0 0.0
2015-May-24 10:33N 29°44' W 095°13'0 0.0
2015-May-24 09:33N 29°44' W 095°13'0 0.0
2015-May-24 08:33N 29°44' W 095°13'0 0.0
2015-May-24 07:33N 29°44' W 095°13'0 0.0
2015-May-24 06:33N 29°44' W 095°13'0 0.0
2015-May-24 05:30N 29°44' W 095°13'0 0.0
2015-May-24 04:33N 29°44' W 095°13'0 0.0
2015-May-24 03:33N 29°44' W 095°13'0 0.0
2015-May-24 02:33N 29°44' W 095°13'0 0.0
2015-May-24 01:33N 29°44' W 095°13'0 0.0
2015-May-24 00:33N 29°44' W 095°13'0 0.0
2015-May-23 23:33N 29°44' W 095°13'0 0.0
2015-May-23 22:33N 29°44' W 095°13'0 0.0
2015-May-23 21:33N 29°44' W 095°13'0 0.0
2015-May-23 20:33N 29°44' W 095°13'0 0.0
2015-May-23 19:33N 29°44' W 095°13'0 0.0
2015-May-23 18:33N 29°44' W 095°13'0 0.0
2015-May-23 17:33N 29°44' W 095°13'0 0.0
2015-May-23 16:33N 29°44' W 095°13'0 0.0
2015-May-23 15:33N 29°44' W 095°13'0 0.0
2015-May-23 14:33N 29°44' W 095°13'0 0.0
2015-May-23 13:33N 29°44' W 095°13'0 0.0
2015-May-23 12:33N 29°44' W 095°13'0 0.0
2015-May-23 11:33N 29°44' W 095°13'0 0.0
2015-May-23 10:33N 29°44' W 095°13'0 0.0
2015-May-23 09:33N 29°44' W 095°13'0 0.0
2015-May-23 08:33N 29°44' W 095°13'0 0.0
2015-May-23 07:33N 29°44' W 095°13'0 0.0
2015-May-23 06:33N 29°44' W 095°13'0 0.5
2015-May-23 05:33N 29°44' W 095°14'5 5.2
2015-May-23 04:34N 29°44' W 095°08'6 5.7
2015-May-23 03:33N 29°43' W 095°01'1010.5
2015-May-23 02:34N 29°34' W 094°55'1312.5
2015-May-23 01:33N 29°23' W 094°49'  
2015-May-18 01:28N 20°35' W 096°34'1613.8
2015-May-18 00:19N 20°21' W 096°27'1113.8
2015-May-17 23:32N 20°11' W 096°22'1313.8
2015-May-17 22:33N 19°58' W 096°16'1713.5
2015-May-17 21:17N 19°43' W 096°09'1313.2
2015-May-17 20:18N 19°31' W 096°03'1013.2
2015-May-17 19:33N 19°22' W 095°59'1111.1
2015-May-17 18:33N 19°11' W 096°03'4 4.1
2015-May-17 17:31N 19°12' W 096°07'0 0.0
2015-May-17 16:31N 19°12' W 096°07'0 0.0
2015-May-17 15:31N 19°12' W 096°07'0 0.0
2015-May-17 14:31N 19°12' W 096°07'0 0.0
2015-May-17 13:31N 19°12' W 096°07'0 0.0
2015-May-17 12:31N 19°12' W 096°07'0 0.0
2015-May-17 11:31N 19°12' W 096°07'0 0.0
2015-May-17 10:31N 19°12' W 096°07'0 0.0
2015-May-17 09:31N 19°12' W 096°07'0 0.0
2015-May-17 08:31N 19°12' W 096°07'0 0.0
2015-May-17 07:31N 19°12' W 096°07'0 0.0
2015-May-17 06:28N 19°12' W 096°07'0 0.0
2015-May-17 05:31N 19°12' W 096°07'0 0.0
2015-May-17 04:31N 19°12' W 096°07'0 0.0
2015-May-17 03:31N 19°12' W 096°07'0 0.0
2015-May-17 02:28N 19°12' W 096°07'0 0.0
2015-May-17 01:31N 19°12' W 096°07'0 0.0
2015-May-17 00:28N 19°12' W 096°07'0 0.0
2015-May-16 23:31N 19°12' W 096°07'0 0.0
2015-May-16 22:31N 19°12' W 096°07'0 0.0
2015-May-16 21:31N 19°12' W 096°07'0 0.0
2015-May-16 20:31N 19°12' W 096°07'0 0.0
2015-May-16 19:31N 19°12' W 096°07'0 0.0
2015-May-16 18:31N 19°12' W 096°07'0 0.1
2015-May-16 17:33N 19°12' W 096°07'6 6.4
2015-May-16 16:33N 19°12' W 096°01'1312.8
2015-May-16 15:33N 19°14' W 095°47'1413.5
2015-May-16 14:34N 19°09' W 095°34'1413.9
2015-May-16 13:33N 19°02' W 095°21'  
Track history (hours):
 
Tides and Currents Weather Stations Pressure Air Temp Water Temp Dewpoint Dewpoint Depression Visibility Wind Speed Wind Dir Waves Ship Positions

Kriti Ruby

Last reported at 2015-May-25 06:31 UTC. Time now 2015-May-27 07:47 UTC.
Position N 29°21' W 094°47'.

Length 183 m; draft 10 m.

Type: Ship (hazmat cat A). MMSI: 240941000.

Date/timePositionNaut miles runAvg speedWind from/ knotsBaromVisibWave heightAir tempDewpointWater temp
2015-May-25 06:31N 29°21' W 094°47'1212.1
2015-May-25 05:34N 29°31' W 094°53'1111.0
2015-May-25 04:33N 29°41' W 094°59'7 7.1
2015-May-25 03:34N 29°45' W 095°06'6 5.6
2015-May-25 02:34N 29°44' W 095°12'1 1.4
2015-May-25 01:33N 29°44' W 095°13'0 0.0
2015-May-25 00:33N 29°44' W 095°13'0 0.0
2015-May-24 23:33N 29°44' W 095°13'0 0.0
2015-May-24 22:33N 29°44' W 095°13'0 0.0
2015-May-24 21:33N 29°44' W 095°13'0 0.0
2015-May-24 20:33N 29°44' W 095°13'0 0.0
2015-May-24 19:33N 29°44' W 095°13'0 0.0
2015-May-24 18:33N 29°44' W 095°13'0 0.0
2015-May-24 17:33N 29°44' W 095°13'0 0.0
2015-May-24 16:33N 29°44' W 095°13'0 0.0
2015-May-24 15:33N 29°44' W 095°13'0 0.0
2015-May-24 14:33N 29°44' W 095°13'0 0.0
2015-May-24 13:33N 29°44' W 095°13'0 0.0
2015-May-24 12:33N 29°44' W 095°13'0 0.0
2015-May-24 11:33N 29°44' W 095°13'0 0.0
2015-May-24 10:33N 29°44' W 095°13'0 0.0
2015-May-24 09:33N 29°44' W 095°13'0 0.0
2015-May-24 08:33N 29°44' W 095°13'0 0.0
2015-May-24 07:33N 29°44' W 095°13'0 0.0
2015-May-24 06:33N 29°44' W 095°13'0 0.0
2015-May-24 05:30N 29°44' W 095°13'0 0.0
2015-May-24 04:33N 29°44' W 095°13'0 0.0
2015-May-24 03:33N 29°44' W 095°13'0 0.0
2015-May-24 02:33N 29°44' W 095°13'0 0.0
2015-May-24 01:33N 29°44' W 095°13'0 0.0
2015-May-24 00:33N 29°44' W 095°13'0 0.0
2015-May-23 23:33N 29°44' W 095°13'0 0.0
2015-May-23 22:33N 29°44' W 095°13'0 0.0
2015-May-23 21:33N 29°44' W 095°13'0 0.0
2015-May-23 20:33N 29°44' W 095°13'0 0.0
2015-May-23 19:33N 29°44' W 095°13'0 0.0
2015-May-23 18:33N 29°44' W 095°13'0 0.0
2015-May-23 17:33N 29°44' W 095°13'0 0.0
2015-May-23 16:33N 29°44' W 095°13'0 0.0
2015-May-23 15:33N 29°44' W 095°13'0 0.0
2015-May-23 14:33N 29°44' W 095°13'0 0.0
2015-May-23 13:33N 29°44' W 095°13'0 0.0
2015-May-23 12:33N 29°44' W 095°13'0 0.0
2015-May-23 11:33N 29°44' W 095°13'0 0.0
2015-May-23 10:33N 29°44' W 095°13'0 0.0
2015-May-23 09:33N 29°44' W 095°13'0 0.0
2015-May-23 08:33N 29°44' W 095°13'0 0.0
2015-May-23 07:33N 29°44' W 095°13'0 0.0
2015-May-23 06:33N 29°44' W 095°13'0 0.5
2015-May-23 05:33N 29°44' W 095°14'5 5.2
2015-May-23 04:34N 29°44' W 095°08'6 5.7
2015-May-23 03:33N 29°43' W 095°01'1010.5
2015-May-23 02:34N 29°34' W 094°55'1312.5
2015-May-23 01:33N 29°23' W 094°49'  
2015-May-18 01:28N 20°35' W 096°34'1613.8
2015-May-18 00:19N 20°21' W 096°27'1113.8
2015-May-17 23:32N 20°11' W 096°22'1313.8
2015-May-17 22:33N 19°58' W 096°16'1713.5
2015-May-17 21:17N 19°43' W 096°09'1313.2
2015-May-17 20:18N 19°31' W 096°03'1013.2
2015-May-17 19:33N 19°22' W 095°59'1111.1
2015-May-17 18:33N 19°11' W 096°03'4 4.1
2015-May-17 17:31N 19°12' W 096°07'0 0.0
2015-May-17 16:31N 19°12' W 096°07'0 0.0
2015-May-17 15:31N 19°12' W 096°07'0 0.0
2015-May-17 14:31N 19°12' W 096°07'0 0.0
2015-May-17 13:31N 19°12' W 096°07'0 0.0
2015-May-17 12:31N 19°12' W 096°07'0 0.0
2015-May-17 11:31N 19°12' W 096°07'0 0.0
2015-May-17 10:31N 19°12' W 096°07'0 0.0
2015-May-17 09:31N 19°12' W 096°07'0 0.0
2015-May-17 08:31N 19°12' W 096°07'0 0.0
2015-May-17 07:31N 19°12' W 096°07'0 0.0
2015-May-17 06:28N 19°12' W 096°07'0 0.0
2015-May-17 05:31N 19°12' W 096°07'0 0.0
2015-May-17 04:31N 19°12' W 096°07'0 0.0
2015-May-17 03:31N 19°12' W 096°07'0 0.0
2015-May-17 02:28N 19°12' W 096°07'0 0.0
2015-May-17 01:31N 19°12' W 096°07'0 0.0
2015-May-17 00:28N 19°12' W 096°07'0 0.0
2015-May-16 23:31N 19°12' W 096°07'0 0.0
2015-May-16 22:31N 19°12' W 096°07'0 0.0
2015-May-16 21:31N 19°12' W 096°07'0 0.0
2015-May-16 20:31N 19°12' W 096°07'0 0.0
2015-May-16 19:31N 19°12' W 096°07'0 0.0
2015-May-16 18:31N 19°12' W 096°07'0 0.1
2015-May-16 17:33N 19°12' W 096°07'6 6.4
2015-May-16 16:33N 19°12' W 096°01'1312.8
2015-May-16 15:33N 19°14' W 095°47'1413.5
2015-May-16 14:34N 19°09' W 095°34'1413.9
2015-May-16 13:33N 19°02' W 095°21'  

Dump ship's entire track history